AirNav   Duncan Aviation - Near you to keep you flying
 
 472 users online  

CD17 Bijou Basin Airport
Byers, Colorado, USA

GOING TO BYERS?


FAA INFORMATION EFFECTIVE 02 DECEMBER 2021

Location

FAA Identifier: CD17
Lat/Long: 39-54-29.9380N 104-07-33.8320W
39-54.498967N 104-07.563867W
39.9083161,-104.1260644
(estimated)
Elevation: 4885 ft. / 1489 m (estimated)
Variation: 11E (1985)
From city: 13 miles NE of BYERS, CO
Time zone: UTC -7 (UTC -6 during Daylight Saving Time)
Zip code: 80103

Airport Operations

Airport use: CLOSED INDEFINITELY
Activation date: 01/1988
Control tower: no
ARTCC: DENVER CENTER
FSS: DENVER FLIGHT SERVICE STATION
Attendance: UNATNDD
Wind indicator: yes
Segmented circle: no

Nearby radio navigation aids

VOR radial/distance  VOR name  Freq  Var
DVVr080/22.9MILE HIGH VORTAC114.7008E
DENr069/25.3DENVER VOR/DME117.9008E
FQFr049/26.3FALCON VORTAC116.3011E

Airport Services

Runway Information

Runway 8/26

Dimensions: 2200 x 30 ft. / 671 x 9 m
Surface: dirt
RUNWAY 8  RUNWAY 26
Traffic pattern: leftleft
Obstructions: none40 ft. trees, 200 ft. from runway

Airport Ownership and Management from official FAA records

Ownership: Privately-owned
Owner: JAMES D. THURMAN
3120 EAST CALEY AVE.
LITTLETON, CO 80121
Phone 303-798-0820
Manager: JAMES D. THURMAN
3120 EAST CALEY AVE
LITTLETON, CO 80121
Phone 303-798-0820

Airport Operational Statistics

Aircraft based on the field: 1
Single engine airplanes: 1
    

Additional Remarks

FOR CD CTC DENVER APCH AT 303-342-1916.
(ARPT STATUS) ARPT CLSD INDEFLY.

Instrument Procedures

There are no published instrument procedures at CD17.

Some nearby airports with instrument procedures:

KCFO - Colorado Air and Space Port Airport (20 nm W)
KDEN - Denver International Airport (25 nm W)
KFMM - Fort Morgan Municipal Airport (30 nm NE)
KBKF - Buckley Space Force Base (31 nm SW)
KAPA - Centennial Airport (39 nm SW)
 
Loc | Ops | Rwys | IFR | FBO | Links
Com | Nav | Svcs | Stats | Notes

AirBoss

 
Area around CD17 (Bijou Basin Airport)
 
Road maps at: MapQuest Bing Google
 
Aerial photo
No photo
 
Sectional chart

 
Airport distance calculator
Flying to Bijou Basin Airport? Find the distance to fly.

From to CD17

Sunrise and sunset
Times for 07-Dec-2021
 Local
(UTC-7)
 Zulu
(UTC)
Morning civil twilight06:3513:35
Sunrise07:0614:06
Sunset16:3023:30
Evening civil twilight17:0100:01

Current date and time
Zulu (UTC)  07-Dec-2021 07:19:15
Local (UTC-7)  07-Dec-2021 00:19:15
 
METAR
KCFO 
20nm W 
070655Z AUTO 22003KT 10SM CLR 00/M12 A2979 RMK AO2 T00031121 400201112
KDEN 
25nm W 
070653Z 18011KT 10SM FEW140 BKN220 M01/M12 A2978 RMK AO2 SLP094 T10061122 400061128
KFMM 
30nm NE 
070655Z AUTO 25007KT CLR M11/M21 A2979 RMK AO2 PWINO TSNO
KBKF 
31nm W 
070658Z 19003KT 10SM FEW140 BKN220 02/M11 A2979 RMK AO2A SLP095 T00161109 400621109
KGXY 
38nm NW 
070656Z AUTO 01004KT 10SM CLR M07/M15 A2979 RMK AO2 SLP135 T10721150 410061106 FZRANO
KAPA 
39nm SW 
070653Z 18005KT 10SM FEW140 SCT220 02/M11 A2978 RMK AO2 SLP106 T00171111 400561089
TAF
KDEN 
25nm W 
070529Z 0706/0812 16008KT P6SM FEW120 BKN200 FM071400 10008KT P6SM SCT120 BKN220 FM071800 14007KT P6SM FEW120 SCT220 FM072300 VRB06KT P6SM FEW120 SCT220 FM080200 14006KT P6SM FEW120 SCT220 FM080500 18007KT P6SM FEW120 SCT220
NOTAMs
Click for the latest NOTAMs
NOTAMs are issued by the DoD/FAA and will open in a separate window not controlled by AirNav.

 

 
 

Would you like to see your business listed on this page?

 If your business provides an interesting product or service to pilots, flight crews, aircraft, or users of the Bijou Basin Airport, you should consider listing it here.  To start the listing process, click on the button below
 
Add a business
 

Other Pages about Bijou Basin Airport

Update a link
 
Copyright © AirNav, LLC. All rights reserved. Privacy Policy  Contact